Time;durP1;ratioP1;P1;durP2;ratioP2;P2;SDS_P1;SDS_P2;PMS_P1;PMS_P2;Temp;Humidity;BMP_temperature;BMP_pressure;BME280_temperature;BME280_humidity;BME280_pressure;Samples;Min_cycle;Max_cycle;Signal;HPM_P1;HPM_P2
2023/10/02 00:01:06;;;;;;;0.70;0.70;;;;;;;;;;5113603;28;20437;-66
2023/10/02 00:03:34;;;;;;;0.70;0.70;;;;;;;;;;5113582;28;20430;-66
2023/10/02 00:06:02;;;;;;;0.70;0.70;;;;;;;;;;5113687;28;20490;-66
2023/10/02 00:08:39;;;;;;;0.70;0.70;;;;;;;;;;5112898;28;20444;-66
2023/10/02 00:14:20;;;;;;;0.70;0.70;;;;;;;;;;5102436;28;20426;-66
2023/10/02 00:16:59;;;;;;;0.70;0.70;;;;;;;;;;5113815;28;20422;-66
2023/10/02 00:19:30;;;;;;;0.70;0.70;;;;;;;;;;5112824;28;20920;-66
2023/10/02 00:21:59;;;;;;;1.07;1.07;;;;;;;;;;5113812;28;20422;-65
2023/10/02 00:24:29;;;;;;;0.70;0.70;;;;;;;;;;5112940;28;20437;-66
2023/10/02 00:26:59;;;;;;;0.80;0.80;;;;;;;;;;5113209;28;20451;-66
2023/10/02 00:29:26;;;;;;;0.70;0.70;;;;;;;;;;5113063;28;20444;-66
2023/10/02 00:31:53;;;;;;;0.70;0.70;;;;;;;;;;5112784;28;20477;-66
2023/10/02 00:34:30;;;;;;;0.70;0.70;;;;;;;;;;5112873;28;20526;-66
2023/10/02 00:36:58;;;;;;;0.70;0.70;;;;;;;;;;5113131;28;20478;-65
2023/10/02 00:39:24;;;;;;;0.80;0.80;;;;;;;;;;5112583;28;20515;-66
2023/10/02 00:42:16;;;;;;;0.70;0.70;;;;;;;;;;5112976;28;20455;-66
2023/10/02 00:44:52;;;;;;;0.70;0.70;;;;;;;;;;5113008;28;20431;-66
2023/10/02 00:47:38;;;;;;;0.70;0.70;;;;;;;;;;5112449;28;20422;-66
2023/10/02 00:50:10;;;;;;;0.73;0.73;;;;;;;;;;5112781;28;20494;-66
2023/10/02 00:52:43;;;;;;;0.70;0.70;;;;;;;;;;5113439;28;20514;-66
2023/10/02 00:55:14;;;;;;;0.80;0.80;;;;;;;;;;5113101;28;20429;-66
2023/10/02 00:57:43;;;;;;;0.80;0.80;;;;;;;;;;5116829;28;20443;-66
2023/10/02 01:00:19;;;;;;;0.70;0.70;;;;;;;;;;5116514;28;20479;-66
2023/10/02 01:02:46;;;;;;;0.80;0.80;;;;;;;;;;5116520;28;20848;-66
2023/10/02 01:05:16;;;;;;;0.80;0.80;;;;;;;;;;5116128;28;20803;-66
2023/10/02 01:07:43;;;;;;;0.70;0.70;;;;;;;;;;5116496;28;20440;-66
2023/10/02 01:10:17;;;;;;;0.70;0.70;;;;;;;;;;5115938;28;20495;-66
2023/10/02 01:12:49;;;;;;;0.70;0.70;;;;;;;;;;5116031;28;20481;-66
2023/10/02 01:15:19;;;;;;;1.10;1.10;;;;;;;;;;5116263;28;20433;-66
2023/10/02 01:17:48;;;;;;;0.70;0.70;;;;;;;;;;5116023;28;20449;-66
2023/10/02 01:20:20;;;;;;;0.70;0.70;;;;;;;;;;5116171;28;20879;-66
2023/10/02 01:22:51;;;;;;;0.80;0.80;;;;;;;;;;5116551;28;20780;-65
2023/10/02 01:25:23;;;;;;;0.70;0.70;;;;;;;;;;5115894;28;20910;-66
2023/10/02 01:27:55;;;;;;;0.80;0.80;;;;;;;;;;5117039;28;20480;-66
2023/10/02 01:30:23;;;;;;;0.70;0.70;;;;;;;;;;5115727;28;20800;-66
2023/10/02 01:33:14;;;;;;;0.70;0.70;;;;;;;;;;5115923;28;20560;-66
2023/10/02 01:35:46;;;;;;;0.70;0.70;;;;;;;;;;5115914;28;20480;-66
2023/10/02 01:38:13;;;;;;;0.70;0.70;;;;;;;;;;5115914;28;20777;-65
2023/10/02 01:40:45;;;;;;;0.70;0.70;;;;;;;;;;5115453;28;20441;-66
2023/10/02 01:43:14;;;;;;;0.80;0.80;;;;;;;;;;5115440;28;20450;-66
2023/10/02 01:45:45;;;;;;;0.70;0.70;;;;;;;;;;5115745;28;20773;-66
2023/10/02 01:48:36;;;;;;;0.80;0.80;;;;;;;;;;5115533;28;20583;-66
2023/10/02 01:51:15;;;;;;;0.70;0.70;;;;;;;;;;5115262;28;20471;-66
2023/10/02 01:53:42;;;;;;;0.70;0.70;;;;;;;;;;5115845;28;20866;-67
2023/10/02 01:56:12;;;;;;;0.70;0.70;;;;;;;;;;5115239;28;20521;-66
2023/10/02 01:58:40;;;;;;;0.80;0.80;;;;;;;;;;5115496;28;20448;-66
2023/10/02 02:01:09;;;;;;;0.90;0.90;;;;;;;;;;5115298;28;20808;-66
2023/10/02 02:03:36;;;;;;;0.80;0.80;;;;;;;;;;5115292;28;20450;-66
2023/10/02 02:06:08;;;;;;;0.70;0.70;;;;;;;;;;5115249;28;20838;-66
2023/10/02 02:08:36;;;;;;;0.70;0.70;;;;;;;;;;5115281;28;20434;-67
2023/10/02 02:11:16;;;;;;;0.70;0.70;;;;;;;;;;5114820;28;20950;-66
2023/10/02 02:13:46;;;;;;;0.77;0.77;;;;;;;;;;5115158;28;20468;-66
2023/10/02 02:16:15;;;;;;;0.80;0.80;;;;;;;;;;5114920;28;20969;-66
2023/10/02 02:18:43;;;;;;;0.70;0.70;;;;;;;;;;5114622;28;20507;-66
2023/10/02 02:21:14;;;;;;;0.70;0.70;;;;;;;;;;5114974;28;20434;-66
2023/10/02 02:23:41;;;;;;;0.70;0.70;;;;;;;;;;5114762;28;20425;-66
2023/10/02 02:26:09;;;;;;;0.70;0.70;;;;;;;;;;5114786;28;20446;-66
2023/10/02 02:28:43;;;;;;;0.77;0.77;;;;;;;;;;5114822;28;20430;-66
2023/10/02 02:31:29;;;;;;;0.80;0.80;;;;;;;;;;5094012;28;20507;-66
2023/10/02 02:33:58;;;;;;;0.73;0.73;;;;;;;;;;5094247;28;20505;-66
2023/10/02 02:36:26;;;;;;;0.70;0.70;;;;;;;;;;5094230;28;20442;-66
2023/10/02 02:39:08;;;;;;;0.70;0.70;;;;;;;;;;5094737;28;20943;-66
2023/10/02 02:41:35;;;;;;;0.80;0.80;;;;;;;;;;5094254;28;20430;-66
2023/10/02 02:44:04;;;;;;;0.80;0.80;;;;;;;;;;5093955;28;20534;-66
2023/10/02 02:46:32;;;;;;;0.70;0.70;;;;;;;;;;5093769;28;20454;-66
2023/10/02 02:49:00;;;;;;;0.80;0.80;;;;;;;;;;5093617;28;20497;-66
2023/10/02 02:51:28;;;;;;;0.70;0.70;;;;;;;;;;5094053;28;20521;-66
2023/10/02 02:53:56;;;;;;;0.80;0.80;;;;;;;;;;5094246;28;20475;-66
2023/10/02 02:56:24;;;;;;;0.80;0.80;;;;;;;;;;5093941;28;20448;-66
2023/10/02 02:58:52;;;;;;;0.80;0.80;;;;;;;;;;5093902;28;20458;-66
2023/10/02 03:01:24;;;;;;;0.80;0.80;;;;;;;;;;5093780;28;20516;-66
2023/10/02 03:03:55;;;;;;;0.80;0.80;;;;;;;;;;5094154;28;20841;-66
2023/10/02 03:06:23;;;;;;;0.70;0.70;;;;;;;;;;5093974;28;20447;-66
2023/10/02 03:08:51;;;;;;;0.70;0.70;;;;;;;;;;5093807;28;20439;-66
2023/10/02 03:11:21;;;;;;;0.80;0.80;;;;;;;;;;5093590;28;20854;-66
2023/10/02 03:13:49;;;;;;;0.80;0.80;;;;;;;;;;5093674;28;20466;-66
2023/10/02 03:16:18;;;;;;;0.80;0.80;;;;;;;;;;5093568;28;20818;-66
2023/10/02 03:18:48;;;;;;;0.80;0.80;;;;;;;;;;5093451;28;20515;-66
2023/10/02 03:21:23;;;;;;;0.70;0.70;;;;;;;;;;5093287;28;20443;-66
2023/10/02 03:23:50;;;;;;;0.80;0.80;;;;;;;;;;5094043;28;20428;-66
2023/10/02 03:29:04;;;;;;;0.80;0.80;;;;;;;;;;5093368;28;20395;-66
2023/10/02 03:31:43;;;;;;;0.70;0.70;;;;;;;;;;5093467;28;20445;-65
2023/10/02 03:34:28;;;;;;;0.80;0.80;;;;;;;;;;5093356;28;20512;-65
2023/10/02 03:36:59;;;;;;;0.70;0.70;;;;;;;;;;5093389;28;20541;-66
2023/10/02 03:42:12;;;;;;;0.70;0.70;;;;;;;;;;5079938;28;20427;-66
2023/10/02 03:44:39;;;;;;;0.80;0.80;;;;;;;;;;5092888;28;20450;-66
2023/10/02 03:47:07;;;;;;;0.70;0.70;;;;;;;;;;5092736;28;20448;-67
2023/10/02 03:49:34;;;;;;;0.70;0.70;;;;;;;;;;5093212;28;20442;-66
2023/10/02 03:52:05;;;;;;;0.70;0.70;;;;;;;;;;5102000;28;20445;-66
2023/10/02 03:54:34;;;;;;;0.70;0.70;;;;;;;;;;5112417;28;20484;-66
2023/10/02 03:57:02;;;;;;;0.70;0.70;;;;;;;;;;5112652;28;20465;-66
2023/10/02 03:59:32;;;;;;;0.80;0.80;;;;;;;;;;5112920;28;20593;-66
2023/10/02 04:02:24;;;;;;;0.80;0.80;;;;;;;;;;5112490;28;20427;-66
2023/10/02 04:04:48;;;;;;;0.80;0.80;;;;;;;;;;5112667;28;20431;-67
2023/10/02 04:07:17;;;;;;;0.80;0.80;;;;;;;;;;5112741;28;20445;-67
2023/10/02 04:09:49;;;;;;;0.80;0.80;;;;;;;;;;5113191;28;20591;-67
2023/10/02 04:12:18;;;;;;;0.70;0.70;;;;;;;;;;5113151;28;20533;-66
2023/10/02 04:14:46;;;;;;;0.70;0.70;;;;;;;;;;5113259;28;20574;-66
2023/10/02 04:17:14;;;;;;;0.80;0.80;;;;;;;;;;5112542;28;20508;-66
2023/10/02 04:19:47;;;;;;;0.70;0.70;;;;;;;;;;5112748;28;20451;-66
2023/10/02 04:22:19;;;;;;;0.70;0.70;;;;;;;;;;5113436;28;20442;-66
2023/10/02 04:24:54;;;;;;;1.10;1.10;;;;;;;;;;5113001;28;20508;-67
2023/10/02 04:27:25;;;;;;;0.80;0.80;;;;;;;;;;5112627;28;20790;-66
2023/10/02 04:30:21;;;;;;;0.80;0.80;;;;;;;;;;5113357;28;20830;-66
2023/10/02 04:32:51;;;;;;;0.80;0.80;;;;;;;;;;5116422;28;20474;-65
2023/10/02 04:38:08;;;;;;;0.80;0.80;;;;;;;;;;5116624;28;20401;-65
2023/10/02 04:40:49;;;;;;;0.80;0.80;;;;;;;;;;5116953;28;20896;-65
2023/10/02 04:43:22;;;;;;;0.80;0.80;;;;;;;;;;5115793;28;20509;-65
2023/10/02 04:45:48;;;;;;;0.70;0.70;;;;;;;;;;5117040;28;20836;-65
2023/10/02 04:48:16;;;;;;;0.80;0.80;;;;;;;;;;5116078;28;20496;-65
2023/10/02 04:50:45;;;;;;;0.80;0.80;;;;;;;;;;5116635;28;20531;-65
2023/10/02 04:53:23;;;;;;;0.80;0.80;;;;;;;;;;5095906;28;20485;-65
2023/10/02 04:56:07;;;;;;;0.70;0.70;;;;;;;;;;5096131;28;20442;-65
2023/10/02 04:58:36;;;;;;;0.80;0.80;;;;;;;;;;5096186;28;20926;-65
2023/10/02 05:01:28;;;;;;;0.80;0.80;;;;;;;;;;5095976;28;20513;-65
2023/10/02 05:03:55;;;;;;;0.80;0.80;;;;;;;;;;5095930;28;20450;-65
2023/10/02 05:06:44;;;;;;;0.80;0.80;;;;;;;;;;5095652;28;20453;-64
2023/10/02 05:09:25;;;;;;;0.73;0.73;;;;;;;;;;5095919;28;20825;-65
2023/10/02 05:11:55;;;;;;;0.70;0.70;;;;;;;;;;5096136;28;20893;-65
2023/10/02 05:14:29;;;;;;;0.70;0.70;;;;;;;;;;5095978;28;21103;-65
2023/10/02 05:17:16;;;;;;;0.70;0.70;;;;;;;;;;5095703;28;20439;-65
2023/10/02 05:20:03;;;;;;;0.80;0.80;;;;;;;;;;5095685;28;20518;-64
2023/10/02 05:22:31;;;;;;;0.70;0.70;;;;;;;;;;5095372;28;20441;-64
2023/10/02 05:24:59;;;;;;;0.70;0.70;;;;;;;;;;5094890;28;20963;-64
2023/10/02 05:27:30;;;;;;;0.70;0.70;;;;;;;;;;5095114;28;20440;-65
2023/10/02 05:29:58;;;;;;;0.80;0.80;;;;;;;;;;5095119;28;20439;-65
2023/10/02 05:32:29;;;;;;;0.77;0.77;;;;;;;;;;5094999;28;20450;-65
2023/10/02 05:35:05;;;;;;;0.70;0.70;;;;;;;;;;5095743;28;20496;-65
2023/10/02 05:37:34;;;;;;;0.70;0.70;;;;;;;;;;5095348;28;20427;-65
2023/10/02 05:42:53;;;;;;;0.70;0.70;;;;;;;;;;5093730;28;20436;-64
2023/10/02 05:45:37;;;;;;;0.87;0.87;;;;;;;;;;5095326;28;20425;-65
2023/10/02 05:48:07;;;;;;;0.70;0.70;;;;;;;;;;5095075;28;20573;-64
2023/10/02 05:50:35;;;;;;;0.80;0.80;;;;;;;;;;5094930;28;20539;-64
2023/10/02 05:53:04;;;;;;;0.80;0.80;;;;;;;;;;5094592;28;20482;-65
2023/10/02 05:55:56;;;;;;;0.70;0.70;;;;;;;;;;5094801;28;20455;-65
2023/10/02 05:58:31;;;;;;;0.80;0.80;;;;;;;;;;5094597;28;20443;-64
2023/10/02 06:01:01;;;;;;;0.80;0.80;;;;;;;;;;5095402;28;20432;-64
2023/10/02 06:03:29;;;;;;;0.70;0.70;;;;;;;;;;5094766;28;20435;-64
2023/10/02 06:06:18;;;;;;;0.80;0.80;;;;;;;;;;5094863;28;20434;-64
2023/10/02 06:08:48;;;;;;;0.70;0.70;;;;;;;;;;5095066;28;20910;-64
2023/10/02 06:11:28;;;;;;;0.73;0.73;;;;;;;;;;5094529;28;20430;-65
2023/10/02 06:13:57;;;;;;;0.80;0.80;;;;;;;;;;5094753;28;20852;-64
2023/10/02 06:16:26;;;;;;;0.80;0.80;;;;;;;;;;5095142;28;20442;-64
2023/10/02 06:19:02;;;;;;;1.20;1.10;;;;;;;;;;5094407;28;20435;-65
2023/10/02 06:21:31;;;;;;;0.80;0.80;;;;;;;;;;5094877;28;20462;-65
2023/10/02 06:23:58;;;;;;;0.70;0.70;;;;;;;;;;5094139;28;20451;-66
2023/10/02 06:26:29;;;;;;;0.80;0.80;;;;;;;;;;5094550;28;20478;-66
2023/10/02 06:29:22;;;;;;;0.73;0.73;;;;;;;;;;5094180;28;20426;-66
2023/10/02 06:31:51;;;;;;;0.70;0.70;;;;;;;;;;5094341;28;20437;-66
2023/10/02 06:34:18;;;;;;;0.80;0.80;;;;;;;;;;5093866;28;20971;-66
2023/10/02 06:37:02;;;;;;;0.80;0.80;;;;;;;;;;5094378;28;20572;-66
2023/10/02 06:39:35;;;;;;;1.00;1.00;;;;;;;;;;5094368;28;20828;-65
2023/10/02 06:42:04;;;;;;;0.80;0.80;;;;;;;;;;5094687;28;20767;-66
2023/10/02 06:44:40;;;;;;;0.70;0.70;;;;;;;;;;5094059;28;20478;-66
2023/10/02 06:47:11;;;;;;;0.70;0.70;;;;;;;;;;5094836;28;20483;-66
2023/10/02 06:49:39;;;;;;;0.70;0.70;;;;;;;;;;5094071;28;20501;-66
2023/10/02 06:52:13;;;;;;;0.80;0.80;;;;;;;;;;5093754;28;20465;-66
2023/10/02 06:54:42;;;;;;;0.80;0.80;;;;;;;;;;5093164;28;20463;-65
2023/10/02 06:57:11;;;;;;;0.80;0.80;;;;;;;;;;5093938;28;20435;-65
2023/10/02 06:59:40;;;;;;;0.80;0.80;;;;;;;;;;5093781;28;20439;-65
2023/10/02 07:02:07;;;;;;;0.80;0.80;;;;;;;;;;5093541;28;20450;-65
2023/10/02 07:04:35;;;;;;;0.70;0.70;;;;;;;;;;5093422;28;20539;-66
2023/10/02 07:07:10;;;;;;;0.77;0.77;;;;;;;;;;5094326;28;20454;-65
2023/10/02 07:09:37;;;;;;;0.70;0.70;;;;;;;;;;5093704;28;20458;-65
2023/10/02 07:12:13;;;;;;;0.70;0.70;;;;;;;;;;5093643;28;20431;-65
2023/10/02 07:14:42;;;;;;;0.70;0.70;;;;;;;;;;5093168;28;20466;-66
2023/10/02 07:17:16;;;;;;;0.70;0.70;;;;;;;;;;5093456;28;20449;-66
2023/10/02 07:19:48;;;;;;;0.80;0.80;;;;;;;;;;5093711;28;20432;-66
2023/10/02 07:22:17;;;;;;;0.70;0.70;;;;;;;;;;5093617;28;20433;-66
2023/10/02 07:24:46;;;;;;;0.70;0.70;;;;;;;;;;5093176;28;20442;-66
2023/10/02 07:27:23;;;;;;;0.70;0.70;;;;;;;;;;5092693;28;20432;-66
2023/10/02 07:29:55;;;;;;;0.70;0.70;;;;;;;;;;5092310;28;20433;-66
2023/10/02 07:32:24;;;;;;;0.70;0.70;;;;;;;;;;5092673;28;20526;-66
2023/10/02 07:34:54;;;;;;;0.70;0.70;;;;;;;;;;5092882;28;20491;-66
2023/10/02 07:37:23;;;;;;;0.70;0.70;;;;;;;;;;5093077;28;20584;-66
2023/10/02 07:39:56;;;;;;;0.70;0.70;;;;;;;;;;5092577;28;20910;-66
2023/10/02 07:42:24;;;;;;;0.70;0.70;;;;;;;;;;5093394;28;20450;-66
2023/10/02 07:44:52;;;;;;;3.23;1.77;;;;;;;;;;5092951;28;20549;-66
2023/10/02 07:47:21;;;;;;;1.07;1.07;;;;;;;;;;5092557;28;20440;-66
2023/10/02 07:49:51;;;;;;;1.37;1.27;;;;;;;;;;5092817;28;20434;-65
2023/10/02 07:52:29;;;;;;;0.80;0.80;;;;;;;;;;5092870;28;20426;-66
2023/10/02 07:54:59;;;;;;;0.70;0.70;;;;;;;;;;5093100;28;20467;-66
2023/10/02 07:57:32;;;;;;;0.70;0.70;;;;;;;;;;5092330;28;20443;-66
2023/10/02 08:00:03;;;;;;;0.70;0.70;;;;;;;;;;5092824;28;20420;-66
2023/10/02 08:02:33;;;;;;;0.70;0.70;;;;;;;;;;5093007;28;20431;-66
2023/10/02 08:05:03;;;;;;;0.70;0.70;;;;;;;;;;5094825;28;20529;-66
2023/10/02 08:07:30;;;;;;;0.70;0.70;;;;;;;;;;5096789;28;20444;-66
2023/10/02 08:09:59;;;;;;;0.70;0.70;;;;;;;;;;5097033;28;20440;-66
2023/10/02 08:12:34;;;;;;;0.70;0.70;;;;;;;;;;5097044;28;20462;-67
2023/10/02 08:15:26;;;;;;;0.70;0.70;;;;;;;;;;5096910;28;20466;-66
2023/10/02 08:18:14;;;;;;;0.70;0.70;;;;;;;;;;5096326;28;20538;-65
2023/10/02 08:20:43;;;;;;;0.70;0.70;;;;;;;;;;5096707;28;20427;-65
2023/10/02 08:23:21;;;;;;;0.70;0.70;;;;;;;;;;5096763;28;20453;-66
2023/10/02 08:26:00;;;;;;;0.70;0.70;;;;;;;;;;5096800;28;20423;-67
2023/10/02 08:28:29;;;;;;;0.70;0.70;;;;;;;;;;5096658;28;20489;-66
2023/10/02 08:31:01;;;;;;;0.70;0.70;;;;;;;;;;5096155;28;20534;-66
2023/10/02 08:33:30;;;;;;;0.80;0.80;;;;;;;;;;5096642;28;20431;-65
2023/10/02 08:35:58;;;;;;;0.70;0.70;;;;;;;;;;5096289;28;20535;-66
2023/10/02 08:38:26;;;;;;;0.70;0.70;;;;;;;;;;5095874;28;20435;-66
2023/10/02 08:40:58;;;;;;;1.97;1.83;;;;;;;;;;5096009;28;20453;-66
2023/10/02 08:43:25;;;;;;;0.70;0.70;;;;;;;;;;5096458;28;20432;-66
2023/10/02 08:45:52;;;;;;;0.70;0.70;;;;;;;;;;5096457;28;20791;-66
2023/10/02 08:48:22;;;;;;;0.70;0.70;;;;;;;;;;5096193;28;20477;-66
2023/10/02 08:50:49;;;;;;;0.80;0.80;;;;;;;;;;5096119;28;20444;-66
2023/10/02 08:53:22;;;;;;;0.70;0.70;;;;;;;;;;5096580;28;20447;-66
2023/10/02 08:55:55;;;;;;;0.80;0.80;;;;;;;;;;5096111;28;20797;-66
2023/10/02 08:58:27;;;;;;;0.70;0.70;;;;;;;;;;5095894;28;20784;-66
2023/10/02 09:01:20;;;;;;;0.70;0.70;;;;;;;;;;5095765;28;20438;-66
2023/10/02 09:04:21;;;;;;;0.70;0.70;;;;;;;;;;5095793;28;20509;-66
2023/10/02 09:06:49;;;;;;;1.10;1.10;;;;;;;;;;5095788;28;20526;-66
2023/10/02 09:09:26;;;;;;;0.70;0.70;;;;;;;;;;5095878;28;20467;-65
2023/10/02 09:11:57;;;;;;;0.80;0.80;;;;;;;;;;5095544;28;20415;-66
2023/10/02 09:14:39;;;;;;;0.70;0.70;;;;;;;;;;5095919;28;20903;-66
2023/10/02 09:17:20;;;;;;;0.80;0.80;;;;;;;;;;5094778;28;20462;-66
2023/10/02 09:19:55;;;;;;;0.70;0.70;;;;;;;;;;5095806;28;20428;-66
2023/10/02 09:22:26;;;;;;;0.70;0.70;;;;;;;;;;5095746;28;20513;-66
2023/10/02 09:24:58;;;;;;;0.70;0.70;;;;;;;;;;5095724;28;20423;-66
2023/10/02 09:27:27;;;;;;;0.70;0.70;;;;;;;;;;5095500;28;20804;-66
2023/10/02 09:32:49;;;;;;;0.70;0.70;;;;;;;;;;5095243;28;20913;-66
2023/10/02 09:35:23;;;;;;;0.70;0.70;;;;;;;;;;5095400;28;20554;-66
2023/10/02 09:37:55;;;;;;;0.70;0.70;;;;;;;;;;5094895;28;20462;-66
2023/10/02 09:40:23;;;;;;;0.70;0.70;;;;;;;;;;5095258;28;20454;-66
2023/10/02 09:43:00;;;;;;;0.70;0.70;;;;;;;;;;5094880;28;20432;-66
2023/10/02 09:45:35;;;;;;;0.70;0.70;;;;;;;;;;5095406;28;20465;-66
2023/10/02 09:48:05;;;;;;;0.70;0.70;;;;;;;;;;5094932;28;20484;-66
2023/10/02 09:50:39;;;;;;;0.70;0.70;;;;;;;;;;5094815;28;20422;-66
2023/10/02 09:53:09;;;;;;;0.80;0.80;;;;;;;;;;5095413;28;20480;-66
2023/10/02 09:55:57;;;;;;;0.70;0.70;;;;;;;;;;5095058;28;20859;-66
2023/10/02 09:58:29;;;;;;;0.70;0.70;;;;;;;;;;5094954;28;20536;-66
2023/10/02 10:01:22;;;;;;;0.70;0.70;;;;;;;;;;5094599;28;20424;-66
2023/10/02 10:03:51;;;;;;;0.87;0.87;;;;;;;;;;5094694;28;20928;-66
2023/10/02 10:06:27;;;;;;;0.70;0.70;;;;;;;;;;5094761;28;20450;-66
2023/10/02 10:14:42;;;;;;;0.70;0.70;;;;;;;;;;5094385;28;21016;-66
2023/10/02 10:17:14;;;;;;;0.90;0.90;;;;;;;;;;5094180;28;20522;-66
2023/10/02 10:19:41;;;;;;;0.70;0.70;;;;;;;;;;5094399;28;20512;-66
2023/10/02 10:22:26;;;;;;;1.90;1.80;;;;;;;;;;5094430;28;20433;-66
2023/10/02 10:24:57;;;;;;;1.00;1.00;;;;;;;;;;5093915;28;20954;-66
2023/10/02 10:27:54;;;;;;;0.70;0.70;;;;;;;;;;5094021;28;21281;-66
2023/10/02 10:30:33;;;;;;;3.23;1.60;;;;;;;;;;5093459;28;20443;-66
2023/10/02 10:33:20;;;;;;;0.70;0.70;;;;;;;;;;5115071;28;20428;-66
2023/10/02 10:35:48;;;;;;;0.70;0.70;;;;;;;;;;5114501;28;20491;-66
2023/10/02 10:38:36;;;;;;;0.70;0.60;;;;;;;;;;5114381;28;20441;-66
2023/10/02 10:41:06;;;;;;;0.70;0.70;;;;;;;;;;5114554;28;20789;-66
2023/10/02 10:43:46;;;;;;;0.77;0.77;;;;;;;;;;5114737;28;20454;-67
2023/10/02 10:46:19;;;;;;;0.70;0.70;;;;;;;;;;5114626;28;20432;-66
2023/10/02 10:48:48;;;;;;;0.80;0.80;;;;;;;;;;5114415;28;20479;-66
2023/10/02 10:51:20;;;;;;;0.70;0.70;;;;;;;;;;5114327;28;20439;-66
2023/10/02 10:53:51;;;;;;;0.70;0.70;;;;;;;;;;5114713;28;20495;-66
2023/10/02 10:56:22;;;;;;;0.70;0.70;;;;;;;;;;5113749;28;20465;-66
2023/10/02 10:58:54;;;;;;;0.70;0.70;;;;;;;;;;5099165;28;20431;-66
2023/10/02 11:01:21;;;;;;;0.70;0.70;;;;;;;;;;5093396;28;20450;-66
2023/10/02 11:03:54;;;;;;;0.70;0.70;;;;;;;;;;5093851;28;20483;-66
2023/10/02 11:06:22;;;;;;;0.90;0.90;;;;;;;;;;5093013;28;20836;-66
2023/10/02 11:09:11;;;;;;;0.70;0.70;;;;;;;;;;5093272;28;20431;-66
2023/10/02 11:11:49;;;;;;;0.70;0.70;;;;;;;;;;5093700;28;20433;-66
2023/10/02 11:14:20;;;;;;;0.70;0.70;;;;;;;;;;5093218;28;20526;-66
2023/10/02 11:16:51;;;;;;;0.70;0.70;;;;;;;;;;5092481;28;20427;-66
2023/10/02 11:19:21;;;;;;;1.50;1.40;;;;;;;;;;5093641;28;20457;-66
2023/10/02 11:22:18;;;;;;;0.73;0.73;;;;;;;;;;5093114;28;20435;-66
2023/10/02 11:24:46;;;;;;;0.70;0.70;;;;;;;;;;5093451;28;20439;-66
2023/10/02 11:27:16;;;;;;;0.70;0.70;;;;;;;;;;5092713;28;20441;-66
2023/10/02 11:29:45;;;;;;;0.70;0.70;;;;;;;;;;5093057;28;20448;-66
2023/10/02 11:32:19;;;;;;;0.70;0.70;;;;;;;;;;5092983;28;20472;-66
2023/10/02 11:34:47;;;;;;;0.70;0.70;;;;;;;;;;5092775;28;20575;-66
2023/10/02 11:37:14;;;;;;;0.70;0.70;;;;;;;;;;5098771;28;20437;-66
2023/10/02 11:39:42;;;;;;;0.70;0.70;;;;;;;;;;5112980;28;20444;-66
2023/10/02 11:42:09;;;;;;;0.70;0.70;;;;;;;;;;5112655;28;20483;-66
2023/10/02 11:44:39;;;;;;;0.70;0.70;;;;;;;;;;5112986;28;20460;-66
2023/10/02 11:47:09;;;;;;;0.70;0.70;;;;;;;;;;5112896;28;20442;-66
2023/10/02 11:49:36;;;;;;;0.70;0.70;;;;;;;;;;5113900;28;20470;-66
2023/10/02 11:52:05;;;;;;;0.70;0.70;;;;;;;;;;5112957;28;21008;-66
2023/10/02 11:54:36;;;;;;;0.70;0.70;;;;;;;;;;5113033;28;20438;-66
2023/10/02 11:57:08;;;;;;;0.70;0.70;;;;;;;;;;5112891;28;20428;-66
2023/10/02 11:59:35;;;;;;;0.80;0.80;;;;;;;;;;5092770;28;20522;-66
2023/10/02 12:02:04;;;;;;;0.70;0.70;;;;;;;;;;5092311;28;20435;-64
2023/10/02 12:04:33;;;;;;;0.70;0.70;;;;;;;;;;5092414;28;20431;-64
2023/10/02 12:07:01;;;;;;;0.70;0.63;;;;;;;;;;5092125;28;20467;-64
2023/10/02 12:09:29;;;;;;;0.80;0.80;;;;;;;;;;5092970;28;20438;-64
2023/10/02 12:11:58;;;;;;;0.70;0.70;;;;;;;;;;5092596;28;20621;-64
2023/10/02 12:14:25;;;;;;;0.70;0.70;;;;;;;;;;5092433;28;20476;-64
2023/10/02 12:16:54;;;;;;;0.70;0.70;;;;;;;;;;5092878;28;20851;-64
2023/10/02 12:19:24;;;;;;;0.80;0.80;;;;;;;;;;5092083;28;20452;-64
2023/10/02 12:21:52;;;;;;;0.80;0.80;;;;;;;;;;5092586;28;20439;-64
2023/10/02 12:24:21;;;;;;;0.70;0.70;;;;;;;;;;5092497;28;20438;-64
2023/10/02 12:26:49;;;;;;;0.70;0.70;;;;;;;;;;5092058;28;20455;-64
2023/10/02 12:29:17;;;;;;;0.70;0.70;;;;;;;;;;5110648;28;20448;-64
2023/10/02 12:31:44;;;;;;;0.70;0.70;;;;;;;;;;5112284;28;20470;-64
2023/10/02 12:34:13;;;;;;;0.70;0.70;;;;;;;;;;5112778;28;20443;-64
2023/10/02 12:36:42;;;;;;;1.63;1.13;;;;;;;;;;5112612;28;20472;-65
2023/10/02 12:39:13;;;;;;;0.80;0.80;;;;;;;;;;5112647;28;20440;-65
2023/10/02 12:41:41;;;;;;;0.70;0.70;;;;;;;;;;5112498;28;20430;-65
2023/10/02 12:44:09;;;;;;;0.70;0.70;;;;;;;;;;5112216;28;20452;-65
2023/10/02 12:46:43;;;;;;;0.70;0.70;;;;;;;;;;5112657;28;20522;-65
2023/10/02 12:49:10;;;;;;;0.70;0.70;;;;;;;;;;5112631;28;20958;-65
2023/10/02 12:51:38;;;;;;;0.70;0.70;;;;;;;;;;5113521;28;20533;-65
2023/10/02 12:54:07;;;;;;;0.80;0.80;;;;;;;;;;5116573;28;20435;-65
2023/10/02 12:56:36;;;;;;;0.70;0.70;;;;;;;;;;5116596;28;20547;-65
2023/10/02 12:59:04;;;;;;;0.70;0.70;;;;;;;;;;5115949;28;20469;-65
2023/10/02 13:01:32;;;;;;;0.70;0.70;;;;;;;;;;5116210;28;20468;-65
2023/10/02 13:04:00;;;;;;;0.70;0.70;;;;;;;;;;5115925;28;20527;-64
2023/10/02 13:06:29;;;;;;;0.70;0.70;;;;;;;;;;5116143;28;20878;-65
2023/10/02 13:09:03;;;;;;;0.80;0.80;;;;;;;;;;5115767;28;20512;-65
2023/10/02 13:11:32;;;;;;;0.70;0.60;;;;;;;;;;5116278;28;20432;-65
2023/10/02 13:13:59;;;;;;;0.70;0.70;;;;;;;;;;5116240;28;20542;-65
2023/10/02 13:16:26;;;;;;;0.70;0.70;;;;;;;;;;5115946;28;20471;-65
2023/10/02 13:18:55;;;;;;;1.40;1.30;;;;;;;;;;5116036;28;20450;-65
2023/10/02 13:21:24;;;;;;;0.80;0.80;;;;;;;;;;5115678;28;20506;-65
2023/10/02 13:23:51;;;;;;;0.70;0.70;;;;;;;;;;5115686;28;20436;-65
2023/10/02 13:26:19;;;;;;;0.70;0.70;;;;;;;;;;5115844;28;20534;-65
2023/10/02 13:28:52;;;;;;;0.70;0.70;;;;;;;;;;5115529;28;20487;-66
2023/10/02 13:31:19;;;;;;;0.70;0.70;;;;;;;;;;5115754;28;20512;-64
2023/10/02 13:33:51;;;;;;;0.70;0.70;;;;;;;;;;5115327;28;20441;-65
2023/10/02 13:36:21;;;;;;;0.70;0.63;;;;;;;;;;5115850;28;20491;-65
2023/10/02 13:38:49;;;;;;;0.70;0.70;;;;;;;;;;5115155;28;20472;-65
2023/10/02 13:41:17;;;;;;;1.00;1.00;;;;;;;;;;5115302;28;20529;-65
2023/10/02 13:43:45;;;;;;;0.70;0.70;;;;;;;;;;5115659;28;20467;-65
2023/10/02 13:46:15;;;;;;;0.70;0.70;;;;;;;;;;5115061;28;20451;-65
2023/10/02 13:48:42;;;;;;;0.70;0.70;;;;;;;;;;5115293;28;20534;-65
2023/10/02 13:51:10;;;;;;;0.70;0.70;;;;;;;;;;5115533;28;20527;-65
2023/10/02 13:53:37;;;;;;;0.70;0.70;;;;;;;;;;5114968;28;20465;-65
2023/10/02 13:56:08;;;;;;;1.00;1.00;;;;;;;;;;5115302;28;20564;-65
2023/10/02 13:58:36;;;;;;;0.70;0.70;;;;;;;;;;5115601;28;20480;-66
2023/10/02 14:01:05;;;;;;;0.70;0.70;;;;;;;;;;5115242;28;20441;-65
2023/10/02 14:03:33;;;;;;;1.67;1.57;;;;;;;;;;5115056;28;20464;-65
2023/10/02 14:06:02;;;;;;;0.80;0.80;;;;;;;;;;5114989;28;20533;-65
2023/10/02 14:08:29;;;;;;;0.70;0.70;;;;;;;;;;5114756;28;20955;-65
2023/10/02 14:10:57;;;;;;;0.70;0.70;;;;;;;;;;5114908;28;20452;-65
2023/10/02 14:13:25;;;;;;;0.80;0.80;;;;;;;;;;5114725;28;20449;-65
2023/10/02 14:15:53;;;;;;;0.70;0.70;;;;;;;;;;5114757;28;20572;-65
2023/10/02 14:18:23;;;;;;;0.70;0.70;;;;;;;;;;5114817;28;20535;-65
2023/10/02 14:21:00;;;;;;;0.70;0.70;;;;;;;;;;5114453;28;20808;-65
2023/10/02 14:23:28;;;;;;;0.70;0.70;;;;;;;;;;5115372;28;20773;-65
2023/10/02 14:25:55;;;;;;;0.70;0.70;;;;;;;;;;5114838;28;20450;-65
2023/10/02 14:28:23;;;;;;;0.70;0.70;;;;;;;;;;5114435;28;20525;-65
2023/10/02 14:30:50;;;;;;;0.70;0.70;;;;;;;;;;5114733;28;20459;-65
2023/10/02 14:33:17;;;;;;;0.90;0.90;;;;;;;;;;5114396;28;20757;-64
2023/10/02 14:35:45;;;;;;;0.70;0.70;;;;;;;;;;5114153;28;20984;-65
2023/10/02 14:38:13;;;;;;;0.70;0.70;;;;;;;;;;5114565;28;20520;-66
2023/10/02 14:40:41;;;;;;;0.70;0.70;;;;;;;;;;5114390;28;20441;-66
2023/10/02 14:43:11;;;;;;;0.70;0.70;;;;;;;;;;5114665;28;20510;-66
2023/10/02 14:45:39;;;;;;;0.70;0.70;;;;;;;;;;5114353;28;20497;-67
2023/10/02 14:48:07;;;;;;;0.70;0.70;;;;;;;;;;5114016;28;20476;-66
2023/10/02 14:50:37;;;;;;;0.70;0.70;;;;;;;;;;5113179;28;20460;-66
2023/10/02 14:53:08;;;;;;;0.70;0.70;;;;;;;;;;5113631;28;20425;-66
2023/10/02 14:55:38;;;;;;;0.70;0.70;;;;;;;;;;5114113;28;20425;-66
2023/10/02 14:58:07;;;;;;;0.70;0.70;;;;;;;;;;5114698;28;20863;-66
2023/10/02 15:00:34;;;;;;;0.70;0.70;;;;;;;;;;5114018;28;20798;-66
2023/10/02 15:03:03;;;;;;;0.70;0.70;;;;;;;;;;5114144;28;20449;-66
2023/10/02 15:05:30;;;;;;;0.70;0.70;;;;;;;;;;5113925;28;20428;-67
2023/10/02 15:08:00;;;;;;;0.70;0.70;;;;;;;;;;5114134;28;20523;-67
2023/10/02 15:10:28;;;;;;;0.70;0.70;;;;;;;;;;5113372;28;20445;-67
2023/10/02 15:12:57;;;;;;;0.90;0.90;;;;;;;;;;5113639;28;20461;-66
2023/10/02 15:15:28;;;;;;;0.70;0.70;;;;;;;;;;5112831;28;20492;-66
2023/10/02 15:17:55;;;;;;;0.70;0.70;;;;;;;;;;5114035;28;20522;-66
2023/10/02 15:20:24;;;;;;;0.70;0.70;;;;;;;;;;5102728;28;20478;-66
2023/10/02 15:22:51;;;;;;;0.70;0.70;;;;;;;;;;5093027;28;20436;-66
2023/10/02 15:25:20;;;;;;;0.87;0.87;;;;;;;;;;5092919;28;20439;-66
2023/10/02 15:27:48;;;;;;;0.70;0.70;;;;;;;;;;5092930;28;20450;-66
2023/10/02 15:30:17;;;;;;;0.70;0.63;;;;;;;;;;5092971;28;20435;-66
2023/10/02 15:32:45;;;;;;;1.57;1.47;;;;;;;;;;5092721;28;20464;-67